| time (UTC) | temp F | wind direction | speed MPH | gust MPH | rain 1hr in | rain 24hr in | rain mn in | humidity % | barometer mb |
| 20260506044551 | 62 | 155 | 0.0 | 5.0 | 0.00 | 0.00 | 0.00 | 81 | 1017.7 |
| 20260506043051 | 62 | 132 | 1.0 | 4.0 | 0.00 | 0.00 | 0.00 | 80 | 1017.7 |
| 20260506041602 | 62 | 180 | 1.0 | 3.0 | 0.00 | 0.00 | 0.00 | 79 | 1017.9 |
| 20260506040056 | 63 | 184 | 1.0 | 5.0 | 0.00 | 0.00 | 0.00 | 79 | 1017.9 |
| 20260506034600 | 63 | 182 | 3.0 | 7.0 | 0.00 | 0.00 | 0.00 | 77 | 1017.8 |
| 20260506033052 | 64 | 153 | 2.0 | 7.0 | 0.00 | 0.00 | 0.00 | 76 | 1017.9 |
| 20260506031549 | 64 | 169 | 2.0 | 7.0 | 0.00 | 0.00 | 0.00 | 75 | 1017.9 |
| 20260506030050 | 65 | 168 | 4.0 | 10.0 | 0.00 | 0.00 | 0.00 | 73 | 1017.9 |
| 20260506024601 | 65 | 128 | 2.0 | 6.0 | 0.00 | 0.00 | 0.00 | 71 | 1017.6 |
| 20260506023047 | 66 | 159 | 2.0 | 6.0 | 0.00 | 0.00 | 0.00 | 70 | 1017.8 |
| 20260506021550 | 67 | 180 | 3.0 | 10.0 | 0.00 | 0.00 | 0.00 | 68 | 1017.8 |
| 20260506020107 | 67 | 147 | 3.0 | 9.0 | 0.00 | 0.00 | 0.00 | 67 | 1017.7 |
| 20260506014607 | 68 | 182 | 6.0 | 10.0 | 0.00 | 0.00 | 0.00 | 67 | 1017.6 |
| 20260506013048 | 69 | 150 | 4.0 | 11.0 | 0.00 | 0.00 | 0.00 | 68 | 1017.3 |
| 20260506011613 | 69 | 125 | 4.0 | 9.0 | 0.00 | 0.00 | 0.00 | 68 | 1017.3 |
| 20260506010050 | 70 | 179 | 3.0 | 9.0 | 0.00 | 0.00 | 0.00 | 67 | 1016.9 |
| 20260506004604 | 71 | 168 | 6.0 | 12.0 | 0.00 | 0.00 | 0.00 | 65 | 1016.5 |
| 20260506003050 | 72 | 121 | 4.0 | 10.0 | 0.00 | 0.00 | 0.00 | 64 | 1016.2 |
| 20260506001545 | 73 | 164 | 5.0 | 11.0 | 0.00 | 0.00 | 0.00 | 63 | 1016.0 |
| 20260506000118 | 74 | 145 | 6.0 | 12.0 | 0.00 | 0.00 | 0.00 | 60 | 1016.2 |
| 20260505234554 | 76 | 169 | 3.0 | 11.0 | 0.00 | 0.00 | 0.00 | 55 | 1015.8 |
| 20260505233056 | 77 | 161 | 2.0 | 6.0 | 0.00 | 0.00 | 0.00 | 47 | 1015.7 |
| 20260505231611 | 78 | 197 | 3.0 | 8.0 | 0.00 | 0.00 | 0.00 | 43 | 1015.9 |
| 20260505224550 | 80 | 242 | 5.0 | 9.0 | 0.00 | 0.00 | 0.00 | 41 | 1016.1 |
| 20260505223052 | 81 | 234 | 4.0 | 9.0 | 0.00 | 0.00 | 0.00 | 41 | 1015.8 |
| 20260505221557 | 81 | 176 | 5.0 | 10.0 | 0.00 | 0.00 | 0.00 | 42 | 1015.8 |
| 20260505220053 | 81 | 179 | 4.0 | 10.0 | 0.00 | 0.00 | 0.00 | 40 | 1015.9 |
| 20260505214550 | 81 | 192 | 5.0 | 12.0 | 0.00 | 0.00 | 0.00 | 42 | 1015.9 |
| 20260505213052 | 82 | 190 | 4.0 | 10.0 | 0.00 | 0.00 | 0.00 | 42 | 1016.0 |
| 20260505211550 | 81 | 198 | 3.0 | 10.0 | 0.00 | 0.00 | 0.00 | 42 | 1016.0 |
| 20260505210050 | 81 | 242 | 2.0 | 10.0 | 0.00 | 0.00 | 0.00 | 43 | 1016.1 |
| 20260505204600 | 81 | 212 | 5.0 | 13.0 | 0.00 | 0.00 | 0.00 | 40 | 1016.2 |
| 20260505203059 | 79 | 240 | 4.0 | 10.0 | 0.00 | 0.00 | 0.00 | 42 | 1016.3 |
| 20260505201551 | 81 | 221 | 3.0 | 7.0 | 0.00 | 0.00 | 0.00 | 43 | 1016.3 |
| 20260505200050 | 80 | 176 | 4.0 | 10.0 | 0.00 | 0.00 | 0.00 | 41 | 1016.6 |
| 20260505194604 | 79 | 144 | 3.0 | 9.0 | 0.00 | 0.00 | 0.00 | 43 | 1016.7 |
| 20260505193052 | 81 | 238 | 4.0 | 10.0 | 0.00 | 0.00 | 0.00 | 43 | 1016.8 |
| 20260505191556 | 80 | 228 | 3.0 | 12.0 | 0.00 | 0.00 | 0.00 | 43 | 1017.2 |
| 20260505190046 | 82 | 169 | 2.0 | 13.0 | 0.00 | 0.00 | 0.00 | 45 | 1017.6 |
| 20260505184547 | 80 | 153 | 2.0 | 11.0 | 0.00 | 0.00 | 0.00 | 47 | 1017.8 |
| 20260505183054 | 81 | 197 | 6.0 | 12.0 | 0.00 | 0.00 | 0.00 | 47 | 1018.3 |
| 20260505181555 | 82 | 252 | 5.0 | 9.0 | 0.00 | 0.00 | 0.00 | 46 | 1018.4 |
| 20260505180057 | 80 | 261 | 2.0 | 7.0 | 0.00 | 0.00 | 0.00 | 47 | 1018.3 |
| 20260505174547 | 81 | 265 | 2.0 | 14.0 | 0.00 | 0.00 | 0.00 | 45 | 1018.2 |
| 20260505173059 | 80 | 167 | 5.0 | 13.0 | 0.00 | 0.00 | 0.00 | 44 | 1018.2 |
| 20260505171618 | 79 | 209 | 4.0 | 10.0 | 0.00 | 0.00 | 0.00 | 47 | 1018.2 |
| 20260505170053 | 79 | 173 | 3.0 | 10.0 | 0.00 | 0.00 | 0.00 | 46 | 1018.3 |
| 20260505164546 | 79 | 172 | 5.0 | 12.0 | 0.00 | 0.00 | 0.00 | 45 | 1018.6 |
| 20260505163045 | 78 | 214 | 3.0 | 8.0 | 0.00 | 0.00 | 0.00 | 51 | 1018.9 |
| 20260505161553 | 78 | 208 | 3.0 | 9.0 | 0.00 | 0.00 | 0.00 | 53 | 1018.8 |
| 20260505153051 | 75 | 245 | 3.0 | 8.0 | 0.00 | 0.00 | 0.00 | 59 | 1019.4 |
| 20260505151553 | 75 | 257 | 2.0 | 10.0 | 0.00 | 0.00 | 0.00 | 61 | 1019.5 |
| 20260505150110 | 75 | 208 | 5.0 | 10.0 | 0.00 | 0.00 | 0.00 | 63 | 1019.5 |
| 20260505124557 | 62 | 189 | 2.0 | 7.0 | 0.00 | 0.00 | 0.00 | 82 | 1019.2 |
| 20260505123100 | 61 | 199 | 1.0 | 4.0 | 0.00 | 0.00 | 0.00 | 87 | 1019.0 |
| 20260505121619 | 59 | 265 | 0.0 | 2.0 | 0.00 | 0.00 | 0.00 | 92 | 1018.9 |
| 20260505120047 | 56 | 0 | 0.0 | 0.0 | 0.00 | 0.00 | 0.00 | 97 | 1018.7 |
| 20260505114551 | 54 | 0 | 0.0 | 0.0 | 0.00 | 0.00 | 0.00 | 97 | 1018.8 |
| 20260505113048 | 51 | 0 | 0.0 | 0.0 | 0.00 | 0.00 | 0.00 | 96 | 1018.7 |
| 20260505111548 | 49 | 0 | 0.0 | 0.0 | 0.00 | 0.00 | 0.00 | 96 | 1018.6 |
| 20260505101546 | 48 | 0 | 0.0 | 0.0 | 0.00 | 0.00 | 0.00 | 96 | 1018.2 |
| 20260505100123 | 48 | 0 | 0.0 | 0.0 | 0.00 | 0.00 | 0.00 | 95 | 1018.1 |
| 20260505094550 | 49 | 0 | 0.0 | 0.0 | 0.00 | 0.00 | 0.00 | 95 | 1018.1 |
| 20260505093052 | 49 | 0 | 0.0 | 0.0 | 0.00 | 0.00 | 0.00 | 95 | 1018.1 |
| 20260505091616 | 49 | 0 | 0.0 | 0.0 | 0.00 | 0.00 | 0.00 | 95 | 1018.1 |
| 20260505090100 | 49 | 0 | 0.0 | 0.0 | 0.00 | 0.00 | 0.00 | 95 | 1017.9 |
| 20260505084549 | 49 | 0 | 0.0 | 0.0 | 0.00 | 0.00 | 0.00 | 95 | 1017.7 |
| 20260505083054 | 50 | 0 | 0.0 | 0.0 | 0.00 | 0.00 | 0.00 | 95 | 1017.7 |
| 20260505081550 | 50 | 0 | 0.0 | 0.0 | 0.00 | 0.00 | 0.00 | 94 | 1017.7 |
| 20260505080055 | 50 | 0 | 0.0 | 0.0 | 0.00 | 0.00 | 0.00 | 94 | 1017.6 |
| 20260505074549 | 50 | 0 | 0.0 | 0.0 | 0.00 | 0.00 | 0.00 | 94 | 1017.6 |
| 20260505073057 | 50 | 0 | 0.0 | 0.0 | 0.00 | 0.00 | 0.00 | 93 | 1017.5 |
| 20260505071549 | 51 | 0 | 0.0 | 0.0 | 0.00 | 0.00 | 0.00 | 93 | 1017.6 |
| 20260505070059 | 51 | 0 | 0.0 | 0.0 | 0.00 | 0.00 | 0.00 | 92 | 1017.5 |
| 20260505064555 | 51 | 0 | 0.0 | 0.0 | 0.00 | 0.00 | 0.00 | 91 | 1017.6 |
| 20260505063052 | 52 | 0 | 0.0 | 0.0 | 0.00 | 0.00 | 0.00 | 90 | 1017.7 |
| 20260505061554 | 53 | 0 | 0.0 | 0.0 | 0.00 | 0.00 | 0.00 | 88 | 1017.7 |
| 20260505060052 | 53 | 0 | 0.0 | 0.0 | 0.00 | 0.00 | 0.00 | 87 | 1017.9 |
| 20260505054617 | 54 | 0 | 0.0 | 0.0 | 0.00 | 0.00 | 0.00 | 86 | 1018.0 |
| 20260505053056 | 55 | 0 | 0.0 | 0.0 | 0.00 | 0.00 | 0.00 | 84 | 1018.0 |
| 20260505051547 | 55 | 0 | 0.0 | 0.0 | 0.00 | 0.00 | 0.00 | 81 | 1018.1 |